Time;durP1;ratioP1;P1;durP2;ratioP2;P2;SDS_P1;SDS_P2;PMS_P1;PMS_P2;Temp;Humidity;BMP_temperature;BMP_pressure;BME280_temperature;BME280_humidity;BME280_pressure;Samples;Min_cycle;Max_cycle;Signal;HPM_P1;HPM_P2
2022/06/03 00:01:45;;;;;;;;;;;24.90;45.70;;;;;;1534096;76;1982;-69
2022/06/03 00:03:55;;;;;;;;;;;25.00;45.70;;;;;;1531690;76;2078;-69
2022/06/03 00:06:05;;;;;;;;;;;25.00;45.80;;;;;;1538563;76;630;-70
2022/06/03 00:08:25;;;;;;;;;;;25.00;45.70;;;;;;1527607;76;1241;-72
2022/06/03 00:10:47;;;;;;;;;;;25.00;45.70;;;;;;1540062;76;728;-69
2022/06/03 00:12:50;;;;;;;;;;;25.00;45.70;;;;;;1531621;76;768;-69
2022/06/03 00:14:54;;;;;;;;;;;24.90;45.60;;;;;;1529444;76;715;-70
2022/06/03 00:17:03;;;;;;;;;;;25.00;45.70;;;;;;1534890;76;1937;-72
2022/06/03 00:19:23;;;;;;;;;;;24.90;45.70;;;;;;1523362;76;1729;-74
2022/06/03 00:21:42;;;;;;;;;;;24.90;45.70;;;;;;1546010;76;716;-71
2022/06/03 00:23:46;;;;;;;;;;;25.00;45.80;;;;;;1537733;76;624;-67
2022/06/03 00:26:01;;;;;;;;;;;25.00;45.80;;;;;;1531003;76;696;-70
2022/06/03 00:28:11;;;;;;;;;;;24.90;45.80;;;;;;1478277;77;1392;-71
2022/06/03 00:30:33;;;;;;;;;;;24.90;45.80;;;;;;1536689;76;579;-72
2022/06/03 00:32:40;;;;;;;;;;;24.90;45.80;;;;;;1545094;76;677;-72
2022/06/03 00:34:58;;;;;;;;;;;24.90;45.80;;;;;;1528496;76;792;-69
2022/06/03 00:37:08;;;;;;;;;;;24.90;45.80;;;;;;1520290;76;1954;-69
2022/06/03 00:39:17;;;;;;;;;;;25.00;45.90;;;;;;1556891;74;3060;-70
2022/06/03 00:41:27;;;;;;;;;;;24.90;45.80;;;;;;1570107;75;726;-68
2022/06/03 00:43:46;;;;;;;;;;;24.90;45.80;;;;;;1565154;75;1230;-69
2022/06/03 00:45:52;;;;;;;;;;;24.90;45.80;;;;;;1556864;75;777;-69
2022/06/03 00:48:12;;;;;;;;;;;24.90;45.90;;;;;;1601329;73;1162;-68
2022/06/03 00:50:32;;;;;;;;;;;24.90;45.90;;;;;;1581576;74;658;-69
2022/06/03 00:52:36;;;;;;;;;;;24.90;45.80;;;;;;1570883;74;678;-70
2022/06/03 00:54:45;;;;;;;;;;;24.90;45.90;;;;;;1569913;74;647;-70
2022/06/03 00:57:05;;;;;;;;;;;25.00;45.80;;;;;;1580223;74;1940;-70
2022/06/03 00:59:20;;;;;;;;;;;24.90;45.90;;;;;;1574352;73;1176;-71
2022/06/03 01:01:27;;;;;;;;;;;25.00;45.90;;;;;;1571712;74;1728;-71
2022/06/03 01:03:46;;;;;;;;;;;24.90;45.90;;;;;;1584562;73;822;-70
2022/06/03 01:06:01;;;;;;;;;;;24.90;45.90;;;;;;1577071;74;690;-70
2022/06/03 01:08:24;;;;;;;;;;;24.90;46.00;;;;;;1570013;73;1639;-71
2022/06/03 01:10:36;;;;;;;;;;;24.80;45.90;;;;;;1581461;74;789;-71
2022/06/03 01:12:43;;;;;;;;;;;24.80;45.90;;;;;;1572317;74;683;-69
2022/06/03 01:14:49;;;;;;;;;;;24.80;46.00;;;;;;1565978;74;1486;-69
2022/06/03 01:16:56;;;;;;;;;;;24.90;46.00;;;;;;1582964;74;1936;-70
2022/06/03 01:19:16;;;;;;;;;;;24.80;46.00;;;;;;1578909;73;1099;-70
2022/06/03 01:21:25;;;;;;;;;;;24.90;46.00;;;;;;1574295;74;655;-70
2022/06/03 01:23:38;;;;;;;;;;;24.90;46.10;;;;;;1589647;74;1123;-70
2022/06/03 01:25:44;;;;;;;;;;;24.90;46.10;;;;;;1579453;73;1922;-71
2022/06/03 01:27:48;;;;;;;;;;;24.90;46.10;;;;;;1572749;74;1156;-68
2022/06/03 01:29:57;;;;;;;;;;;24.90;46.20;;;;;;1584624;74;752;-71
2022/06/03 01:32:17;;;;;;;;;;;24.90;46.10;;;;;;1589613;74;774;-71
2022/06/03 01:34:21;;;;;;;;;;;24.90;46.10;;;;;;1576204;74;803;-71
2022/06/03 01:36:30;;;;;;;;;;;24.90;46.30;;;;;;1578873;73;1958;-70
2022/06/03 01:38:33;;;;;;;;;;;24.90;46.30;;;;;;1566396;73;1871;-69
2022/06/03 01:40:49;;;;;;;;;;;24.90;46.30;;;;;;1579063;74;743;-67
2022/06/03 01:43:08;;;;;;;;;;;24.90;46.30;;;;;;1592888;74;774;-69
2022/06/03 01:45:17;;;;;;;;;;;24.90;46.30;;;;;;1533595;77;1060;-69
2022/06/03 01:47:32;;;;;;;;;;;24.90;46.30;;;;;;1550095;74;909;-70
2022/06/03 01:49:42;;;;;;;;;;;24.90;46.40;;;;;;1586072;74;795;-70
2022/06/03 01:51:48;;;;;;;;;;;25.00;46.30;;;;;;1575623;74;652;-70
2022/06/03 01:54:04;;;;;;;;;;;25.00;46.20;;;;;;1580984;74;724;-69
2022/06/03 01:56:24;;;;;;;;;;;25.00;46.20;;;;;;1583834;74;1965;-70
2022/06/03 01:58:30;;;;;;;;;;;25.00;46.20;;;;;;1587474;74;1195;-70
2022/06/03 02:00:39;;;;;;;;;;;25.00;46.20;;;;;;1581470;74;673;-70
2022/06/03 02:02:59;;;;;;;;;;;25.00;46.20;;;;;;1585348;73;689;-70
2022/06/03 02:05:11;;;;;;;;;;;25.00;46.30;;;;;;1586085;73;634;-70
2022/06/03 02:07:32;;;;;;;;;;;25.00;46.30;;;;;;1572815;74;1938;-71
2022/06/03 02:09:52;;;;;;;;;;;25.00;46.30;;;;;;1586759;74;667;-70
2022/06/03 02:12:12;;;;;;;;;;;25.00;46.30;;;;;;1577311;74;826;-71
2022/06/03 02:14:28;;;;;;;;;;;25.00;46.30;;;;;;1575269;74;652;-71
2022/06/03 02:16:40;;;;;;;;;;;25.00;46.30;;;;;;1588071;74;1941;-70
2022/06/03 02:18:50;;;;;;;;;;;25.00;46.30;;;;;;1588631;73;1711;-69
2022/06/03 02:20:53;;;;;;;;;;;25.00;46.30;;;;;;1575573;74;1372;-69
2022/06/03 02:23:03;;;;;;;;;;;24.90;46.30;;;;;;1578654;74;751;-70
2022/06/03 02:25:10;;;;;;;;;;;25.00;46.30;;;;;;1575477;74;757;-70
2022/06/03 02:27:22;;;;;;;;;;;25.00;46.30;;;;;;1586929;74;1908;-66
2022/06/03 02:32:04;;;;;;;;;;;24.90;46.20;;;;;;1588682;73;1895;-70
2022/06/03 02:34:26;;;;;;;;;;;25.00;46.10;;;;;;1586413;74;1952;-72
2022/06/03 02:36:44;;;;;;;;;;;24.90;46.00;;;;;;1587800;74;1913;-72
2022/06/03 02:38:48;;;;;;;;;;;24.90;46.00;;;;;;1582652;73;1170;-71
2022/06/03 02:40:52;;;;;;;;;;;24.80;46.00;;;;;;1585916;74;692;-72
2022/06/03 02:42:56;;;;;;;;;;;24.80;46.10;;;;;;1559096;75;632;-71
2022/06/03 02:45:03;;;;;;;;;;;24.80;46.10;;;;;;1589680;74;1131;-71
2022/06/03 02:47:23;;;;;;;;;;;24.80;46.20;;;;;;1588156;74;765;-71
2022/06/03 02:49:38;;;;;;;;;;;24.80;46.30;;;;;;1586094;74;1157;-71
2022/06/03 02:51:42;;;;;;;;;;;24.80;46.40;;;;;;1591859;74;646;-72
2022/06/03 02:54:02;;;;;;;;;;;24.80;46.40;;;;;;1577779;74;1471;-72
2022/06/03 02:56:22;;;;;;;;;;;24.80;46.50;;;;;;1591392;74;1922;-70
2022/06/03 02:58:25;;;;;;;;;;;24.80;46.50;;;;;;1587515;74;1132;-71
2022/06/03 03:00:29;;;;;;;;;;;24.90;46.60;;;;;;1592519;74;653;-71
2022/06/03 03:02:33;;;;;;;;;;;24.90;46.60;;;;;;1595836;73;616;-71
2022/06/03 03:04:51;;;;;;;;;;;24.90;46.50;;;;;;1590320;74;724;-71
2022/06/03 03:06:58;;;;;;;;;;;25.00;46.50;;;;;;1587303;74;665;-70
2022/06/03 03:09:07;;;;;;;;;;;25.00;46.50;;;;;;1592386;73;1906;-71
2022/06/03 03:11:11;;;;;;;;;;;25.00;46.60;;;;;;1587811;74;674;-71
2022/06/03 03:13:31;;;;;;;;;;;25.00;46.70;;;;;;1591887;74;789;-71
2022/06/03 03:15:49;;;;;;;;;;;24.90;46.70;;;;;;1591993;73;670;-71
2022/06/03 03:17:56;;;;;;;;;;;24.90;46.70;;;;;;1585262;73;1920;-70
2022/06/03 03:20:02;;;;;;;;;;;24.80;46.60;;;;;;1576771;74;1658;-71
2022/06/03 03:22:24;;;;;;;;;;;25.00;46.70;;;;;;1585959;73;718;-71
2022/06/03 03:24:44;;;;;;;;;;;24.90;46.70;;;;;;1584566;74;627;-70
2022/06/03 03:26:48;;;;;;;;;;;24.90;46.80;;;;;;1590435;73;765;-70
2022/06/03 03:28:57;;;;;;;;;;;24.90;46.70;;;;;;1590731;73;2145;-71
2022/06/03 03:31:17;;;;;;;;;;;24.90;46.70;;;;;;1589818;74;730;-70
2022/06/03 03:33:29;;;;;;;;;;;24.90;46.70;;;;;;1591619;74;708;-70
2022/06/03 03:35:36;;;;;;;;;;;25.00;46.90;;;;;;1585097;74;646;-71
2022/06/03 03:37:54;;;;;;;;;;;25.00;46.90;;;;;;1589517;74;1941;-70
2022/06/03 03:40:04;;;;;;;;;;;24.90;46.80;;;;;;1589316;74;802;-70
2022/06/03 03:42:14;;;;;;;;;;;25.00;46.70;;;;;;1587964;74;711;-69
2022/06/03 03:44:20;;;;;;;;;;;24.90;46.80;;;;;;1583609;74;1991;-72
2022/06/03 03:46:24;;;;;;;;;;;24.80;46.70;;;;;;1585488;74;1913;-71
2022/06/03 03:48:31;;;;;;;;;;;25.00;46.80;;;;;;1580754;75;2141;-71
2022/06/03 03:50:47;;;;;;;;;;;24.80;46.70;;;;;;1585060;74;1479;-71
2022/06/03 03:52:59;;;;;;;;;;;24.90;46.80;;;;;;1585866;73;1480;-71
2022/06/03 03:55:12;;;;;;;;;;;25.00;47.00;;;;;;1584111;73;746;-70
2022/06/03 03:57:21;;;;;;;;;;;24.90;46.90;;;;;;1583928;74;1931;-70
2022/06/03 03:59:41;;;;;;;;;;;24.90;46.80;;;;;;1591210;73;1134;-70
2022/06/03 04:01:51;;;;;;;;;;;24.90;46.80;;;;;;1585344;75;736;-70
2022/06/03 04:03:59;;;;;;;;;;;24.90;46.80;;;;;;1578580;74;682;-70
2022/06/03 04:06:19;;;;;;;;;;;25.00;46.80;;;;;;1564589;74;1770;-70
2022/06/03 04:08:23;;;;;;;;;;;24.80;46.80;;;;;;1575170;75;1137;-69
2022/06/03 04:10:32;;;;;;;;;;;24.80;46.70;;;;;;1576236;74;1931;-70
2022/06/03 04:12:35;;;;;;;;;;;24.90;46.80;;;;;;1564463;75;1564;-71
2022/06/03 04:14:41;;;;;;;;;;;24.90;46.80;;;;;;1576828;74;1570;-70
2022/06/03 04:17:01;;;;;;;;;;;24.90;46.80;;;;;;1561772;75;1938;-71
2022/06/03 04:19:05;;;;;;;;;;;25.00;46.90;;;;;;1574370;74;1148;-70
2022/06/03 04:21:08;;;;;;;;;;;24.90;46.80;;;;;;1566486;75;640;-71
2022/06/03 04:23:24;;;;;;;;;;;24.90;46.80;;;;;;1580887;74;664;-71
2022/06/03 04:25:39;;;;;;;;;;;24.90;46.80;;;;;;1560560;75;688;-71
2022/06/03 04:27:43;;;;;;;;;;;25.00;46.80;;;;;;1559542;75;1140;-69
2022/06/03 04:29:58;;;;;;;;;;;24.80;46.60;;;;;;1564057;75;1015;-71
2022/06/03 04:32:05;;;;;;;;;;;24.80;46.70;;;;;;1601286;73;746;-72
2022/06/03 04:34:22;;;;;;;;;;;24.90;46.80;;;;;;1566106;74;928;-66
2022/06/03 04:36:25;;;;;;;;;;;24.90;46.80;;;;;;1561017;75;1934;-66
2022/06/03 04:38:41;;;;;;;;;;;25.00;47.00;;;;;;1566067;76;1169;-66
2022/06/03 04:40:53;;;;;;;;;;;25.00;46.80;;;;;;1583466;75;1143;-67
2022/06/03 04:43:13;;;;;;;;;;;25.10;46.80;;;;;;1583252;74;743;-66
2022/06/03 04:45:20;;;;;;;;;;;25.10;46.60;;;;;;1584651;75;749;-66
2022/06/03 04:47:29;;;;;;;;;;;25.00;46.60;;;;;;1586993;73;1626;-65
2022/06/03 04:49:39;;;;;;;;;;;25.10;46.60;;;;;;1581293;74;1571;-66
2022/06/03 04:51:45;;;;;;;;;;;25.10;46.50;;;;;;1582740;74;685;-66
2022/06/03 04:54:01;;;;;;;;;;;25.10;46.40;;;;;;1581310;75;637;-67
2022/06/03 04:56:21;;;;;;;;;;;25.20;46.30;;;;;;1582363;74;1659;-66
2022/06/03 04:58:28;;;;;;;;;;;25.20;46.30;;;;;;1587284;73;1913;-68
2022/06/03 05:00:31;;;;;;;;;;;25.20;46.10;;;;;;1532461;75;1036;-70
2022/06/03 05:02:51;;;;;;;;;;;25.20;46.10;;;;;;1574802;74;646;-66
2022/06/03 05:04:54;;;;;;;;;;;25.20;46.10;;;;;;1578025;74;667;-66
2022/06/03 05:07:04;;;;;;;;;;;25.30;46.10;;;;;;1559783;74;1744;-66
2022/06/03 05:09:23;;;;;;;;;;;25.10;46.00;;;;;;1560149;74;1142;-67
2022/06/03 05:11:26;;;;;;;;;;;25.10;46.10;;;;;;1572238;73;656;-67
2022/06/03 05:13:42;;;;;;;;;;;25.10;46.20;;;;;;1583473;74;673;-66
2022/06/03 05:16:02;;;;;;;;;;;25.20;46.20;;;;;;1569674;75;816;-66
2022/06/03 05:18:08;;;;;;;;;;;25.20;46.20;;;;;;1570300;74;1935;-66
2022/06/03 05:20:21;;;;;;;;;;;25.10;46.40;;;;;;1574071;74;672;-65
2022/06/03 05:22:24;;;;;;;;;;;25.10;46.50;;;;;;1584733;74;1949;-67
2022/06/03 05:24:45;;;;;;;;;;;25.20;46.40;;;;;;1584137;73;1905;-64
2022/06/03 05:26:48;;;;;;;;;;;25.20;46.30;;;;;;1588674;74;823;-64
2022/06/03 05:28:55;;;;;;;;;;;25.20;46.40;;;;;;1570590;74;1092;-67
2022/06/03 05:31:14;;;;;;;;;;;25.10;46.50;;;;;;1580323;74;1598;-70
2022/06/03 05:33:21;;;;;;;;;;;25.20;46.50;;;;;;1572450;74;806;-66
2022/06/03 05:35:27;;;;;;;;;;;25.10;46.60;;;;;;1577635;74;1936;-64
2022/06/03 05:37:33;;;;;;;;;;;25.40;46.30;;;;;;1579275;74;1960;-66
2022/06/03 05:39:49;;;;;;;;;;;25.30;46.20;;;;;;1578913;75;1407;-64
2022/06/03 05:44:23;;;;;;;;;;;25.10;46.30;;;;;;1502603;78;1705;-65
2022/06/03 05:46:43;;;;;;;;;;;25.00;46.30;;;;;;1583196;73;1959;-65
2022/06/03 05:48:49;;;;;;;;;;;25.00;46.30;;;;;;1580878;75;1187;-66
2022/06/03 05:50:55;;;;;;;;;;;24.90;46.30;;;;;;1579129;75;811;-65
2022/06/03 05:53:11;;;;;;;;;;;24.90;46.30;;;;;;1583720;75;1883;-66
2022/06/03 05:55:15;;;;;;;;;;;24.80;46.30;;;;;;1582622;74;757;-66
2022/06/03 05:57:35;;;;;;;;;;;24.80;46.30;;;;;;1586652;74;1914;-65
2022/06/03 05:59:47;;;;;;;;;;;24.80;46.40;;;;;;1585580;74;659;-66
2022/06/03 06:02:08;;;;;;;;;;;24.80;46.40;;;;;;1583354;74;2023;-65
2022/06/03 06:04:14;;;;;;;;;;;24.70;46.40;;;;;;1579568;74;740;-65
2022/06/03 06:06:25;;;;;;;;;;;24.70;46.40;;;;;;1567622;74;1595;-66
2022/06/03 06:08:34;;;;;;;;;;;24.60;46.20;;;;;;1583722;73;1146;-65
2022/06/03 06:10:50;;;;;;;;;;;24.70;46.30;;;;;;1567127;74;1712;-65
2022/06/03 06:13:10;;;;;;;;;;;24.70;46.30;;;;;;1574372;74;643;-66
2022/06/03 06:15:29;;;;;;;;;;;24.60;46.10;;;;;;1582292;74;745;-64
2022/06/03 06:17:39;;;;;;;;;;;24.70;46.20;;;;;;1582111;74;2144;-67
2022/06/03 06:19:42;;;;;;;;;;;24.60;46.10;;;;;;1589547;73;806;-65
2022/06/03 06:21:51;;;;;;;;;;;24.60;46.10;;;;;;1578907;74;784;-66
2022/06/03 06:23:58;;;;;;;;;;;24.70;46.30;;;;;;1579958;75;1513;-66
2022/06/03 06:26:04;;;;;;;;;;;24.60;46.20;;;;;;1582231;75;1915;-65
2022/06/03 06:28:11;;;;;;;;;;;24.60;46.10;;;;;;1579611;74;1902;-66
2022/06/03 06:30:17;;;;;;;;;;;24.60;46.10;;;;;;1577348;74;1818;-66
2022/06/03 06:32:24;;;;;;;;;;;24.60;46.00;;;;;;1584895;73;684;-66
2022/06/03 06:34:44;;;;;;;;;;;24.60;46.00;;;;;;1584220;74;692;-67
2022/06/03 06:37:04;;;;;;;;;;;24.60;46.00;;;;;;1585693;73;763;-65
2022/06/03 06:39:10;;;;;;;;;;;24.60;46.00;;;;;;1581710;72;3199;-68
2022/06/03 06:41:20;;;;;;;;;;;24.50;46.10;;;;;;1584406;75;789;-68
2022/06/03 06:43:23;;;;;;;;;;;24.50;46.00;;;;;;1583773;75;756;-67
2022/06/03 06:45:36;;;;;;;;;;;24.60;46.00;;;;;;1582126;75;2040;-67
2022/06/03 06:47:56;;;;;;;;;;;24.50;46.00;;;;;;1586127;75;914;-68
2022/06/03 06:50:16;;;;;;;;;;;24.50;46.00;;;;;;1583319;75;864;-68
2022/06/03 06:52:22;;;;;;;;;;;24.60;46.00;;;;;;1584099;75;858;-68
2022/06/03 06:54:42;;;;;;;;;;;24.60;46.00;;;;;;1583836;75;1948;-66
2022/06/03 06:56:51;;;;;;;;;;;24.50;46.00;;;;;;1586241;75;712;-69
2022/06/03 06:58:55;;;;;;;;;;;24.50;46.00;;;;;;1586718;75;1933;-69
2022/06/03 07:00:57;;;;;;;;;;;24.60;46.10;;;;;;1586019;75;903;-68
2022/06/03 07:03:13;;;;;;;;;;;24.60;46.10;;;;;;1554002;76;1479;-72
2022/06/03 07:05:19;;;;;;;;;;;24.60;46.20;;;;;;1585574;75;2045;-71
2022/06/03 07:07:23;;;;;;;;;;;24.70;46.50;;;;;;1580486;75;724;-72
2022/06/03 07:09:29;;;;;;;;;;;24.70;46.50;;;;;;1578673;75;1149;-69
2022/06/03 07:11:36;;;;;;;;;;;24.80;46.40;;;;;;1579320;75;727;-71
2022/06/03 07:13:42;;;;;;;;;;;24.90;46.40;;;;;;1577574;75;1581;-71
2022/06/03 07:15:48;;;;;;;;;;;24.90;46.20;;;;;;1582595;75;754;-72
2022/06/03 07:20:35;;;;;;;;;;;25.10;45.80;;;;;;1580179;75;1630;-71
2022/06/03 07:22:58;;;;;;;;;;;25.10;45.60;;;;;;1583989;75;724;-69
2022/06/03 07:25:14;;;;;;;;;;;25.10;45.60;;;;;;1584333;75;862;-70
2022/06/03 07:27:17;;;;;;;;;;;25.20;45.50;;;;;;1579364;75;1087;-71
2022/06/03 07:29:24;;;;;;;;;;;25.20;45.50;;;;;;1582503;75;1787;-71
2022/06/03 07:31:27;;;;;;;;;;;25.30;45.40;;;;;;1575760;75;682;-70
2022/06/03 07:33:34;;;;;;;;;;;25.40;45.30;;;;;;1580558;75;723;-70
2022/06/03 07:35:40;;;;;;;;;;;25.30;45.20;;;;;;1561325;75;803;-68
2022/06/03 07:37:50;;;;;;;;;;;25.40;45.10;;;;;;1577866;75;1934;-69
2022/06/03 07:40:05;;;;;;;;;;;25.50;45.00;;;;;;1581607;75;1086;-71
2022/06/03 07:42:15;;;;;;;;;;;25.50;45.10;;;;;;1578370;75;727;-68
2022/06/03 07:44:17;;;;;;;;;;;25.50;45.00;;;;;;1584093;75;817;-69
2022/06/03 07:46:33;;;;;;;;;;;25.50;45.00;;;;;;1588059;75;749;-66
2022/06/03 07:48:36;;;;;;;;;;;25.50;45.20;;;;;;1584235;75;2051;-69
2022/06/03 07:50:39;;;;;;;;;;;25.50;45.00;;;;;;1577009;75;670;-70
2022/06/03 07:52:46;;;;;;;;;;;25.60;45.00;;;;;;1579765;75;1906;-67
2022/06/03 07:54:52;;;;;;;;;;;25.50;45.00;;;;;;1585300;75;736;-69
2022/06/03 07:57:01;;;;;;;;;;;25.60;44.90;;;;;;1583423;75;731;-69
2022/06/03 07:59:07;;;;;;;;;;;25.60;44.70;;;;;;1586798;75;1941;-67
2022/06/03 08:01:22;;;;;;;;;;;25.50;44.70;;;;;;1571475;75;609;-70
2022/06/03 08:03:27;;;;;;;;;;;25.60;44.70;;;;;;1581396;75;998;-67
2022/06/03 08:05:29;;;;;;;;;;;25.70;44.60;;;;;;1586201;75;774;-71
2022/06/03 08:12:12;;;;;;;;;;;25.80;44.30;;;;;;1583200;75;1639;-71
2022/06/03 08:14:14;;;;;;;;;;;25.80;44.20;;;;;;1585957;75;634;-70
2022/06/03 08:16:29;;;;;;;;;;;25.70;44.30;;;;;;1585095;75;747;-73
2022/06/03 08:18:33;;;;;;;;;;;25.80;44.10;;;;;;1582814;75;1947;-69
2022/06/03 08:20:36;;;;;;;;;;;25.70;44.20;;;;;;1580212;75;1900;-70
2022/06/03 08:22:37;;;;;;;;;;;25.70;44.20;;;;;;1580248;75;688;-72
2022/06/03 08:24:40;;;;;;;;;;;25.70;44.10;;;;;;1583317;75;762;-68
2022/06/03 08:26:43;;;;;;;;;;;25.80;44.10;;;;;;1572146;75;754;-69
2022/06/03 08:28:45;;;;;;;;;;;25.80;44.20;;;;;;1571511;75;1146;-69
2022/06/03 08:30:48;;;;;;;;;;;25.70;44.40;;;;;;1586054;75;912;-69
2022/06/03 08:32:51;;;;;;;;;;;25.70;44.40;;;;;;1565546;75;745;-68
2022/06/03 08:34:53;;;;;;;;;;;25.80;44.50;;;;;;1575106;75;612;-71
2022/06/03 08:36:55;;;;;;;;;;;25.80;44.40;;;;;;1581594;75;674;-69
2022/06/03 08:39:05;;;;;;;;;;;25.80;44.40;;;;;;1573885;75;1941;-69
2022/06/03 08:41:08;;;;;;;;;;;25.80;44.40;;;;;;1546989;76;752;-71
2022/06/03 08:43:12;;;;;;;;;;;25.80;44.90;;;;;;1554820;76;1115;-71
2022/06/03 08:45:28;;;;;;;;;;;25.80;44.40;;;;;;1555831;76;704;-71
2022/06/03 08:47:41;;;;;;;;;;;25.90;44.30;;;;;;1557032;75;734;-70
2022/06/03 08:49:45;;;;;;;;;;;25.90;44.20;;;;;;1553412;76;1320;-71
2022/06/03 08:51:48;;;;;;;;;;;25.90;44.30;;;;;;1557068;76;634;-70
2022/06/03 08:53:52;;;;;;;;;;;25.90;44.60;;;;;;1553886;76;682;-68
2022/06/03 08:55:59;;;;;;;;;;;25.90;44.40;;;;;;1554537;76;1550;-70
2022/06/03 08:58:02;;;;;;;;;;;25.90;44.40;;;;;;1555753;75;1931;-70
2022/06/03 09:00:14;;;;;;;;;;;25.80;44.60;;;;;;1543949;76;834;-69
2022/06/03 09:02:23;;;;;;;;;;;25.80;44.70;;;;;;1554783;76;696;-71
2022/06/03 09:04:33;;;;;;;;;;;25.90;44.60;;;;;;1547091;76;1773;-69
2022/06/03 09:06:37;;;;;;;;;;;25.90;44.80;;;;;;1554026;76;729;-68
2022/06/03 09:08:43;;;;;;;;;;;25.90;44.50;;;;;;1555203;76;2016;-70
2022/06/03 09:11:05;;;;;;;;;;;25.90;44.40;;;;;;1545059;76;2160;-69
2022/06/03 09:13:25;;;;;;;;;;;26.00;44.70;;;;;;1501944;78;939;-70
2022/06/03 09:15:28;;;;;;;;;;;26.00;44.90;;;;;;1504541;78;768;-69
2022/06/03 09:17:44;;;;;;;;;;;26.00;44.80;;;;;;1501116;78;723;-69
2022/06/03 09:19:45;;;;;;;;;;;25.90;44.50;;;;;;1551409;76;1180;-67
2022/06/03 09:21:51;;;;;;;;;;;25.90;44.80;;;;;;1545682;76;757;-69
2022/06/03 09:23:54;;;;;;;;;;;25.90;44.60;;;;;;1555205;75;1516;-70
2022/06/03 09:26:00;;;;;;;;;;;25.90;44.50;;;;;;1564740;75;677;-70
2022/06/03 09:28:06;;;;;;;;;;;25.90;44.70;;;;;;1561843;75;1128;-70
2022/06/03 09:30:08;;;;;;;;;;;25.90;44.80;;;;;;1561871;75;701;-70
2022/06/03 09:32:10;;;;;;;;;;;25.90;44.80;;;;;;1563235;75;804;-73
2022/06/03 09:34:12;;;;;;;;;;;25.90;44.60;;;;;;1561167;76;796;-73
2022/06/03 09:36:17;;;;;;;;;;;26.00;45.00;;;;;;1562095;75;785;-70
2022/06/03 09:38:19;;;;;;;;;;;25.90;45.00;;;;;;1561679;75;1935;-70
2022/06/03 09:40:25;;;;;;;;;;;25.90;44.70;;;;;;1569027;75;772;-70
2022/06/03 09:42:27;;;;;;;;;;;26.00;46.20;;;;;;1578865;75;781;-71
2022/06/03 09:44:29;;;;;;;;;;;25.90;45.10;;;;;;1582354;75;671;-68
2022/06/03 09:46:31;;;;;;;;;;;25.90;45.30;;;;;;1578349;75;747;-70
2022/06/03 09:48:36;;;;;;;;;;;25.90;45.40;;;;;;1588671;75;1159;-69
2022/06/03 09:50:38;;;;;;;;;;;25.80;46.10;;;;;;1586190;74;1592;-68
2022/06/03 09:52:39;;;;;;;;;;;25.80;46.60;;;;;;1583774;74;684;-68
2022/06/03 09:54:42;;;;;;;;;;;25.80;45.80;;;;;;1585425;75;799;-66
2022/06/03 09:56:48;;;;;;;;;;;25.90;45.60;;;;;;1588177;75;660;-68
2022/06/03 09:58:49;;;;;;;;;;;25.80;45.60;;;;;;1590159;75;1934;-68
2022/06/03 10:00:52;;;;;;;;;;;25.80;46.40;;;;;;1590114;75;685;-68
2022/06/03 10:02:56;;;;;;;;;;;25.80;45.60;;;;;;1583841;75;774;-68
2022/06/03 10:04:59;;;;;;;;;;;25.90;45.90;;;;;;1584436;75;669;-67
2022/06/03 10:07:02;;;;;;;;;;;25.90;45.90;;;;;;1586671;75;680;-68
2022/06/03 10:13:43;;;;;;;;;;;25.90;46.30;;;;;;1590907;75;803;-69
2022/06/03 10:16:00;;;;;;;;;;;25.80;46.10;;;;;;1586197;75;769;-66
2022/06/03 10:17:59;;;;;;;;;;;25.80;46.00;;;;;;1585711;75;1606;-73
2022/06/03 10:20:01;;;;;;;;;;;25.90;45.90;;;;;;1587050;74;1920;-72
2022/06/03 10:22:05;;;;;;;;;;;25.90;46.50;;;;;;1572701;75;689;-71
2022/06/03 10:24:07;;;;;;;;;;;25.80;46.50;;;;;;1576033;75;1982;-72
2022/06/03 10:26:09;;;;;;;;;;;25.70;46.50;;;;;;1588965;75;743;-72
2022/06/03 10:28:11;;;;;;;;;;;25.80;46.50;;;;;;1587739;75;1140;-71
2022/06/03 10:30:14;;;;;;;;;;;25.70;46.70;;;;;;1589552;75;642;-71
2022/06/03 10:32:17;;;;;;;;;;;25.70;47.30;;;;;;1582442;75;774;-71
2022/06/03 10:34:20;;;;;;;;;;;25.70;47.00;;;;;;1581575;75;811;-73
2022/06/03 10:36:29;;;;;;;;;;;25.60;46.60;;;;;;1544368;76;1165;-74
2022/06/03 10:38:32;;;;;;;;;;;25.70;46.60;;;;;;1578267;75;1919;-72
2022/06/03 10:40:34;;;;;;;;;;;25.60;46.20;;;;;;1577194;75;796;-68
2022/06/03 10:42:36;;;;;;;;;;;25.50;46.70;;;;;;1585975;75;619;-70
2022/06/03 10:44:40;;;;;;;;;;;25.60;47.10;;;;;;1579765;75;715;-67
2022/06/03 10:46:58;;;;;;;;;;;25.50;47.00;;;;;;1581351;75;1391;-71
2022/06/03 10:49:02;;;;;;;;;;;25.60;47.10;;;;;;1579967;75;1145;-71
2022/06/03 11:02:50;;;;;;;;;;;25.50;47.60;;;;;;1483421;79;1032;-71
2022/06/03 11:04:52;;;;;;;;;;;25.50;47.30;;;;;;1524009;75;819;-71
2022/06/03 11:06:54;;;;;;;;;;;25.50;47.90;;;;;;1560198;76;660;-71
2022/06/03 11:09:01;;;;;;;;;;;25.50;47.60;;;;;;1527986;77;1149;-71
2022/06/03 11:11:00;;;;;;;;;;;25.50;47.90;;;;;;1526577;77;1529;-71
2022/06/03 11:13:03;;;;;;;;;;;25.50;47.80;;;;;;1556343;75;706;-71
2022/06/03 11:15:06;;;;;;;;;;;25.40;47.90;;;;;;1568406;75;670;-72
2022/06/03 11:17:10;;;;;;;;;;;25.50;47.90;;;;;;1574988;75;1061;-71
2022/06/03 11:19:18;;;;;;;;;;;25.40;47.90;;;;;;1566336;75;1951;-71
2022/06/03 11:21:28;;;;;;;;;;;25.40;47.70;;;;;;1566222;75;681;-72
2022/06/03 11:23:30;;;;;;;;;;;25.40;47.60;;;;;;1568186;75;747;-71
2022/06/03 11:25:32;;;;;;;;;;;25.40;47.50;;;;;;1541454;76;711;-69
2022/06/03 11:27:39;;;;;;;;;;;25.50;47.50;;;;;;1566910;75;651;-70
2022/06/03 11:29:41;;;;;;;;;;;25.40;47.60;;;;;;1567529;75;1226;-73
2022/06/03 11:31:43;;;;;;;;;;;25.40;47.80;;;;;;1566588;75;724;-70
2022/06/03 11:33:54;;;;;;;;;;;25.40;47.80;;;;;;1569044;75;768;-69
2022/06/03 11:35:58;;;;;;;;;;;25.40;47.80;;;;;;1574674;75;777;-70
2022/06/03 11:38:00;;;;;;;;;;;25.50;47.60;;;;;;1558130;75;1917;-71
2022/06/03 11:40:10;;;;;;;;;;;25.40;47.40;;;;;;1564681;75;1919;-69
2022/06/03 11:42:29;;;;;;;;;;;25.50;47.10;;;;;;1574359;75;762;-70
2022/06/03 11:44:41;;;;;;;;;;;25.50;46.80;;;;;;1573704;75;1379;-68
2022/06/03 11:46:45;;;;;;;;;;;25.50;46.90;;;;;;1576075;75;1651;-69
2022/06/03 11:48:49;;;;;;;;;;;25.50;46.80;;;;;;1575895;75;1816;-68
2022/06/03 11:50:50;;;;;;;;;;;25.50;46.80;;;;;;1576370;75;1673;-68
2022/06/03 11:52:52;;;;;;;;;;;25.50;46.80;;;;;;1542706;76;806;-65
2022/06/03 11:54:54;;;;;;;;;;;25.50;46.90;;;;;;1574315;75;700;-67
2022/06/03 11:56:56;;;;;;;;;;;25.50;46.80;;;;;;1578623;75;735;-69
2022/06/03 11:59:01;;;;;;;;;;;25.50;46.80;;;;;;1576431;75;1923;-69
2022/06/03 12:01:07;;;;;;;;;;;25.50;46.80;;;;;;1576376;75;738;-70
2022/06/03 12:03:23;;;;;;;;;;;25.50;46.80;;;;;;1576300;75;820;-69
2022/06/03 12:05:26;;;;;;;;;;;25.60;47.20;;;;;;1573769;75;986;-70
2022/06/03 12:07:40;;;;;;;;;;;25.50;47.10;;;;;;1577730;75;1862;-69
2022/06/03 12:09:45;;;;;;;;;;;25.50;47.40;;;;;;1577208;75;1128;-68
2022/06/03 12:14:12;;;;;;;;;;;25.50;47.40;;;;;;1575855;75;1664;-68
2022/06/03 12:16:17;;;;;;;;;;;25.50;47.50;;;;;;1577670;75;755;-69
2022/06/03 12:18:30;;;;;;;;;;;25.50;47.60;;;;;;1579938;75;1151;-68
2022/06/03 12:20:33;;;;;;;;;;;25.50;47.60;;;;;;1570828;75;1946;-67
2022/06/03 12:22:36;;;;;;;;;;;25.50;47.20;;;;;;1571169;75;677;-68
2022/06/03 12:24:39;;;;;;;;;;;25.50;47.50;;;;;;1572017;75;691;-68
2022/06/03 12:26:41;;;;;;;;;;;25.50;47.30;;;;;;1578107;75;734;-67
2022/06/03 12:28:45;;;;;;;;;;;25.60;47.10;;;;;;1547955;76;1188;-68
2022/06/03 12:30:51;;;;;;;;;;;25.50;47.20;;;;;;1577246;75;727;-69
2022/06/03 12:32:58;;;;;;;;;;;25.50;47.70;;;;;;1573665;75;1658;-68
2022/06/03 12:35:18;;;;;;;;;;;25.50;47.60;;;;;;1575205;75;794;-68
2022/06/03 12:37:24;;;;;;;;;;;25.50;47.60;;;;;;1571989;75;744;-68
2022/06/03 12:39:27;;;;;;;;;;;25.50;47.50;;;;;;1566570;72;2112;-67
2022/06/03 12:41:49;;;;;;;;;;;25.60;47.50;;;;;;1542241;75;668;-66
2022/06/03 12:43:57;;;;;;;;;;;25.60;47.30;;;;;;1538371;75;721;-68
2022/06/03 12:46:09;;;;;;;;;;;25.50;47.10;;;;;;1545196;75;651;-67
2022/06/03 12:48:29;;;;;;;;;;;25.50;47.10;;;;;;1537217;75;679;-68
2022/06/03 12:50:33;;;;;;;;;;;25.60;46.90;;;;;;1517626;76;654;-66
2022/06/03 12:52:36;;;;;;;;;;;25.50;47.00;;;;;;1520083;76;650;-63
2022/06/03 12:54:38;;;;;;;;;;;25.60;47.10;;;;;;1518160;76;731;-66
2022/06/03 12:56:45;;;;;;;;;;;25.70;46.70;;;;;;1521311;76;692;-69
2022/06/03 12:58:48;;;;;;;;;;;25.60;46.60;;;;;;1520929;76;1200;-67
2022/06/03 13:00:51;;;;;;;;;;;25.70;47.00;;;;;;1533583;76;1934;-70
2022/06/03 13:02:57;;;;;;;;;;;25.80;46.70;;;;;;1520881;76;587;-68
2022/06/03 13:05:00;;;;;;;;;;;25.70;46.80;;;;;;1531629;76;618;-70
2022/06/03 13:07:13;;;;;;;;;;;25.70;47.60;;;;;;1522155;76;699;-69
2022/06/03 13:11:30;;;;;;;;;;;25.80;47.20;;;;;;1498787;78;1148;-68
2022/06/03 13:13:34;;;;;;;;;;;25.70;47.10;;;;;;1525112;76;725;-65
2022/06/03 13:15:42;;;;;;;;;;;25.70;47.50;;;;;;1528199;76;642;-66
2022/06/03 13:20:13;;;;;;;;;;;25.70;47.60;;;;;;1527754;76;1929;-69
2022/06/03 13:22:19;;;;;;;;;;;25.70;47.50;;;;;;1502899;78;1266;-70
2022/06/03 13:24:22;;;;;;;;;;;25.80;47.20;;;;;;1511310;76;702;-69